Portada
METAR-TAF:

METAR-TAF

Aeropuertos :

Kosrae, Micronesia

Aeropuerto Internacional de Kosrae

latitud: 05-21N, longitud: 162-57E, altitud: 3 m

Observación

El informe se hizo hace 7 horas y 11 minutos, a las 22:50 UTC
Viento 7 kt del este-noreste
Temperatura 31°C
Humedad 71%
Presión 1010 hPa
Visibilidad: 16.1 km
Nubes dispersas a una altura de 1700 ft
Cielo nuboso a una altura de 13000 ft
Cielo nuboso a una altura de 30000 ft

METAR: PTSA 162250Z 06007KT 10SM SCT017 BKN130 BKN300 31/25 A2982 RMK LAST

Hora: 17:01 (06:01 UTC)

Pronóstico

El informe se hizo hace 6 horas y 32 minutos, a las 23:29 UTC
Pronóstico válido del 17 a las 00 UTC al 17 a las 24 UTC
Viento 10 kt del este-noreste
Visibilidad: 10 km
Nubes dispersas a una altura de 1800 ft
Nubes dispersas a una altura de 13000 ft
chaparrones en las proximidades

TAF: PTSA 162329Z 1700/1724 07010KT P6SM VCSH SCT018 SCT130

Observaciones y pronósticos meteorológicos de más de 4000 aeropuertos (mensajes METAR y TAF).

Los puntos amarillos y rojos representan las estaciones disponibles.

Ponga el ratón en el punto deseado para ver el nombre de la estación.

Haga clic para ver las observaciones y los pronósticos meteorológicos.

Para cambiar el mapa : haga clic en los botones verdes con una cruz de color negro para hacer un zoom, en el botón verde con un guión para alejar o en las flechas verdes para mapas adyacentes.


METAR-TAF: